Thunder radar more information blitzortung!


Radar de pluja more information rain snow radar


Visita la nostra xarxa de llocs de meteo:

Template documentation
and downloads

And another site



No particular awareness of the weather is required.    There are no Weather-warnings

Pagina Historial Weather Underground text

Diari Resum Juny 28, 2017 Unitats:  Imperial    Mètric   Tant
« Previous Dia
SegĂźent Dia »
Diari Setmana Mensual Anual Personalitzada
  Maxima: Minima: Media:
Temperatura: 88.5 °F 65.7 °F 76.6 °F
Punt de rosada: 64.9 °F 47.5 °F 53.6 °F
Humitat: 78 % 28 % 48 %
Wind Speed: 20.7 mph 0 mph 6.2 mph
RĂ fegues de vent: 20.7 mph - -
Vent:- - SSW
Pression baro: 29.7 in 29.5 in -
Precipitacions: 0.08 in    
Historical Graphs
 
 
Dades de taula per Juny 28, 2017
Temps Temperatura Punt de rosada Pression baro Vent Wind Speed RĂ fegues de vent Humitat Rainfall Rate (Hourly)
00:00 69.8 °F 61.5 °F 29.6 in ENE 2 mph 3 mph 75 % 0 in
00:04 74.1 °F 64.9 °F 29.6 in Calm     73 % 0 in
00:10 69.8 °F 61.9 °F 29.6 in ENE 1 mph 3 mph 76 % 0 in
00:20 69.8 °F 61.9 °F 29.6 in NE 2 mph 4 mph 76 % 0 in
00:30 69.8 °F 61.9 °F 29.6 in NE 2 mph 3 mph 76 % 0 in
00:40 69.6 °F 62.1 °F 29.6 in Calm   2 mph 77 % 0 in
00:50 69.4 °F 61.9 °F 29.6 in Calm   2 mph 77 % 0 in
01:00 69.4 °F 61.9 °F 29.6 in Calm   2 mph 77 % 0 in
01:10 69.1 °F 61.5 °F 29.6 in North 1 mph 2 mph 77 % 0 in
01:20 68.7 °F 61.2 °F 29.6 in Calm   1 mph 77 % 0 in
01:30 68.5 °F 61 °F 29.6 in Calm     77 % 0 in
01:40 68.4 °F 61.2 °F 29.6 in Calm   1 mph 78 % 0 in
01:50 68.4 °F 61.2 °F 29.6 in Calm   1 mph 78 % 0 in
02:00 68.2 °F 61.2 °F 29.6 in West 1 mph 2 mph 78 % 0 in
02:10 68.4 °F 61.2 °F 29.6 in WSW 1 mph 2 mph 78 % 0 in
02:20 68.4 °F 61.2 °F 29.6 in Calm   3 mph 78 % 0 in
02:30 68.4 °F 61.2 °F 29.6 in WSW 2 mph 3 mph 78 % 0 in
02:40 68.7 °F 61.5 °F 29.6 in SW 1 mph 2 mph 78 % 0 in
02:50 69.1 °F 61.9 °F 29.6 in SW 2 mph 2 mph 78 % 0 in
03:00 69.8 °F 62.2 °F 29.6 in WSW 2 mph 3 mph 77 % 0 in
03:10 70.9 °F 63 °F 29.6 in WSW 2 mph 4 mph 76 % 0 in
03:20 71.8 °F 61.9 °F 29.6 in WSW 3 mph 5 mph 71 % 0 in
03:30 72.9 °F 61.3 °F 29.6 in West 3 mph 4 mph 67 % 0 in
03:40 73.4 °F 59.5 °F 29.6 in West 3 mph 6 mph 62 % 0 in
03:50 73 °F 57.9 °F 29.6 in WSW 3 mph 8 mph 59 % 0 in
04:00 72.5 °F 56.5 °F 29.6 in WSW 3 mph 6 mph 57 % 0 in
04:10 73.9 °F 57.4 °F 29.7 in WSW 2 mph 3 mph 56 % 0 in
04:20 74.7 °F 57.4 °F 29.6 in WSW 3 mph 3 mph 55 % 0 in
04:30 75.2 °F 56.8 °F 29.6 in WSW 3 mph 4 mph 53 % 0 in
04:40 76.1 °F 57.2 °F 29.6 in WSW 2 mph 4 mph 52 % 0 in
04:50 76.3 °F 56.8 °F 29.6 in WSW 3 mph 4 mph 51 % 0 in
05:00 77 °F 56.5 °F 29.6 in WSW 5 mph 7 mph 49 % 0 in
05:10 77.4 °F 56.1 °F 29.6 in WSW 3 mph 5 mph 48 % 0 in
05:20 78.3 °F 56.5 °F 29.6 in WSW 6 mph 6 mph 47 % 0 in
05:30 79.2 °F 56.7 °F 29.6 in WSW 3 mph 6 mph 46 % 0 in
05:40 79.3 °F 55.6 °F 29.6 in West 5 mph 6 mph 44 % 0 in
10:45 79.9 °F 54.7 °F 29.6 in West 10.4 mph 10.4 mph 42 % 0 in
10:46 79.9 °F 54.7 °F 29.6 in WSW 10.4 mph 10.4 mph 42 % 0 in
10:51 80.4 °F 55.2 °F 29.6 in South 3.5 mph 3.5 mph 42 % 0 in
10:56 80.8 °F 54.9 °F 29.6 in SSW 4.7 mph 4.7 mph 41 % 0 in
10:57 80.6 °F 54.7 °F 29.6 in West 5.8 mph 5.8 mph 41 % 0 in
11:02 79.9 °F 54.1 °F 29.6 in WSW 3.5 mph 3.5 mph 41 % 0 in
11:07 80.1 °F 53.6 °F 29.6 in WNW 8.1 mph 8.1 mph 40 % 0 in
11:12 80.1 °F 52.9 °F 29.6 in SW 9.2 mph 9.2 mph 39 % 0 in
11:17 80.8 °F 53.4 °F 29.6 in WSW 4 mph 4 mph 39 % 0 in
11:22 81.5 °F 53.4 °F 29.6 in WSW 5.8 mph 5.8 mph 38 % 0 in
11:23 81.5 °F 53.4 °F 29.6 in West 8.1 mph 8.1 mph 38 % 0 in
11:28 81.3 °F 52.5 °F 29.6 in West 8.1 mph 8.1 mph 37 % 0 in
11:33 81.3 °F 52.5 °F 29.6 in WSW 5.8 mph 5.8 mph 37 % 0 in
11:38 81.5 °F 52 °F 29.6 in WSW 8.1 mph 8.1 mph 36 % 0 in
11:43 82 °F 52.3 °F 29.6 in SW 5.8 mph 5.8 mph 36 % 0 in
11:48 81.7 °F 52.2 °F 29.6 in West 6.9 mph 6.9 mph 36 % 0 in
11:53 81.3 °F 51.8 °F 29.6 in West 6.9 mph 6.9 mph 36 % 0 in
11:58 80.8 °F 51.3 °F 29.6 in West 5.8 mph 5.8 mph 36 % 0 in
12:03 81.1 °F 51.6 °F 29.6 in South 5.8 mph 5.8 mph 36 % 0 in
12:08 81.9 °F 52.3 °F 29.6 in SW 4.6 mph 4.6 mph 36 % 0 in
12:13 80.8 °F 50.5 °F 29.6 in WSW 10.4 mph 10.4 mph 35 % 0 in
12:18 81.5 °F 51.3 °F 29.6 in WSW 5.8 mph 5.8 mph 35 % 0 in
12:23 82 °F 51.6 °F 29.6 in WNW 6.9 mph 6.9 mph 35 % 0 in
12:28 82.6 °F 51.4 °F 29.6 in West 10.4 mph 10.4 mph 34 % 0 in
12:33 82.8 °F 50.7 °F 29.6 in West 8.1 mph 8.1 mph 33 % 0 in
12:38 84.2 °F 52 °F 29.6 in West 5.8 mph 5.8 mph 33 % 0 in
12:43 83.1 °F 51.1 °F 29.6 in WSW 9.2 mph 9.2 mph 33 % 0 in
12:48 83.5 °F 50.5 °F 29.6 in WSW 6.9 mph 6.9 mph 32 % 0 in
12:53 82.9 °F 50 °F 29.6 in WNW 5.8 mph 5.8 mph 32 % 0 in
12:58 83.7 °F 51.4 °F 29.6 in SW 5.8 mph 5.8 mph 33 % 0 in
13:03 84 °F 51.1 °F 29.6 in WSW 8.1 mph 8.1 mph 32 % 0 in
13:08 83.1 °F 50.2 °F 29.6 in WSW 6.9 mph 6.9 mph 32 % 0 in
13:13 82.4 °F 49.6 °F 29.6 in SW 6 mph 6 mph 32 % 0 in
13:18 83.8 °F 50 °F 29.6 in South 8.1 mph 8.1 mph 31 % 0 in
13:23 84.2 °F 50.4 °F 29.6 in WSW 9.2 mph 9.2 mph 31 % 0 in
13:28 84.9 °F 50.9 °F 29.6 in West 2.3 mph 2.9 mph 31 % 0 in
13:33 85.5 °F 51.4 °F 29.6 in West 5.8 mph 5.8 mph 31 % 0 in
13:38 85.5 °F 51.4 °F 29.6 in West 11.5 mph 11.5 mph 31 % 0 in
13:43 85.5 °F 51.4 °F 29.6 in WSW 8.1 mph 8.1 mph 31 % 0 in
13:48 85.5 °F 51.4 °F 29.6 in SSW 7.6 mph 7.6 mph 31 % 0 in
13:53 85.8 °F 50.7 °F 29.6 in SW 10.4 mph 10.4 mph 30 % 0 in
13:58 85.8 °F 50.7 °F 29.6 in West 3.5 mph 3.5 mph 30 % 0 in
14:03 85.5 °F 49.6 °F 29.6 in WSW 10.4 mph 10.4 mph 29 % 0 in
14:08 85.3 °F 49.5 °F 29.6 in South 9.2 mph 9.2 mph 29 % 0 in
14:13 85.3 °F 49.5 °F 29.6 in West 12.7 mph 12.7 mph 29 % 0 in
14:18 85.5 °F 49.6 °F 29.6 in West 16.1 mph 16.1 mph 29 % 0 in
14:23 84.9 °F 48.2 °F 29.6 in West 10.4 mph 10.4 mph 28 % 0 in
14:28 85.5 °F 48.6 °F 29.6 in SW 6.9 mph 6.9 mph 28 % 0 in
14:33 86 °F 49.1 °F 29.6 in SW 10.4 mph 10.4 mph 28 % 0 in
14:38 85.8 °F 48.9 °F 29.6 in West 10.5 mph 10.5 mph 28 % 0 in
14:43 85.6 °F 48.7 °F 29.6 in SW 12.7 mph 12.7 mph 28 % 0 in
14:48 86.4 °F 49.5 °F 29.6 in WSW 8.1 mph 8.1 mph 28 % 0 in
14:53 86 °F 49.1 °F 29.6 in WNW 5.8 mph 5.8 mph 28 % 0 in
14:58 86.9 °F 49.8 °F 29.6 in WSW 5.6 mph 5.6 mph 28 % 0 in
15:03 85.8 °F 48.9 °F 29.6 in West 8.1 mph 8.1 mph 28 % 0 in
15:08 86.2 °F 49.3 °F 29.6 in ESE 9.2 mph 9.2 mph 28 % 0 in
15:13 86.2 °F 49.3 °F 29.6 in West 6.2 mph 6.2 mph 28 % 0 in
15:18 86.5 °F 49.6 °F 29.6 in WNW 10.4 mph 10.4 mph 28 % 0 in
15:23 86.2 °F 49.3 °F 29.6 in WSW 6.9 mph 6.9 mph 28 % 0 in
15:28 86.5 °F 49.6 °F 29.6 in SW 5.8 mph 5.8 mph 28 % 0 in
15:33 86.4 °F 49.5 °F 29.6 in WSW 6.4 mph 6.4 mph 28 % 0 in
15:38 86.2 °F 49.3 °F 29.6 in SSE 7.4 mph 7.4 mph 28 % 0 in
15:43 86.2 °F 49.3 °F 29.5 in WSW 8.1 mph 8.1 mph 28 % 0 in
15:48 88 °F 50.7 °F 29.5 in SSW 11.5 mph 11.5 mph 28 % 0 in
15:53 88.5 °F 51.3 °F 29.5 in South 6.9 mph 6.9 mph 28 % 0 in
15:58 87.8 °F 50.5 °F 29.5 in SSW 11.5 mph 11.5 mph 28 % 0 in
15:59 87.6 °F 50.5 °F 29.5 in WSW 11.5 mph 11.5 mph 28 % 0 in
16:04 87.6 °F 50.5 °F 29.5 in WNW 12.7 mph 12.7 mph 28 % 0 in
16:09 86 °F 49.1 °F 29.5 in WSW 8.1 mph 8.1 mph 28 % 0 in
16:14 85.3 °F 48.6 °F 29.5 in SW 6 mph 6 mph 28 % 0 in
16:19 84.4 °F 47.7 °F 29.5 in West 10.4 mph 10.4 mph 28 % 0 in
16:24 84.2 °F 47.7 °F 29.5 in SW 6.9 mph 6.9 mph 28 % 0 in
16:29 84.2 °F 47.7 °F 29.6 in SW 9 mph 9 mph 28 % 0 in
16:34 84.2 °F 47.7 °F 29.6 in SW 5.8 mph 5.8 mph 28 % 0 in
16:39 83.5 °F 47.8 °F 29.6 in SW 8.1 mph 8.1 mph 29 % 0 in
16:44 83.3 °F 47.7 °F 29.5 in South 15 mph 15 mph 29 % 0 in
16:49 82.9 °F 47.5 °F 29.5 in West 11.5 mph 11.5 mph 29 % 0 in
16:54 83.1 °F 47.7 °F 29.5 in WSW 17.3 mph 17.3 mph 29 % 0 in
16:59 83.3 °F 48.6 °F 29.5 in WSW 10.4 mph 10.4 mph 30 % 0 in
17:04 83.5 °F 48.7 °F 29.5 in SW 11.5 mph 11.5 mph 30 % 0 in
17:09 83.3 °F 48.6 °F 29.5 in WSW 9.2 mph 9.2 mph 30 % 0 in
17:14 84 °F 49.3 °F 29.5 in SW 10.4 mph 10.4 mph 30 % 0 in
17:19 83.1 °F 48.6 °F 29.5 in West 13.8 mph 13.8 mph 30 % 0 in
17:24 82.4 °F 48.7 °F 29.5 in SSW 18.4 mph 18.4 mph 31 % 0 in
17:29 82.4 °F 48.7 °F 29.5 in SW 13.8 mph 13.8 mph 31 % 0 in
17:34 82.2 °F 50.2 °F 29.5 in SSW 13.8 mph 13.8 mph 33 % 0 in
17:40 82.6 °F 50.5 °F 29.5 in SSW 18.7 mph 18.7 mph 33 % 0 in
17:45 82.2 °F 51.1 °F 29.5 in SW 20.7 mph 20.7 mph 34 % 0 in
17:50 81.9 °F 51.4 °F 29.5 in SW 13.8 mph 13.8 mph 35 % 0 in
17:55 82.9 °F 53.2 °F 29.5 in SW 10 mph 10 mph 36 % 0 in
18:00 82.4 °F 52.9 °F 29.5 in South 10 mph 10 mph 36 % 0 in
18:05 82 °F 53.2 °F 29.5 in West 13.8 mph 13.8 mph 37 % 0 in
18:10 82.4 °F 52.9 °F 29.5 in SW 12.3 mph 12.3 mph 36 % 0 in
18:15 82.4 °F 52.9 °F 29.5 in SSW 13.8 mph 13.8 mph 36 % 0 in
18:20 82.2 °F 52.5 °F 29.5 in SW 12.7 mph 12.7 mph 36 % 0 in
18:25 81.5 °F 52 °F 29.5 in SW 10.4 mph 10.4 mph 36 % 0 in
18:30 81 °F 52.2 °F 29.5 in SW 13 mph 13 mph 37 % 0 in
18:35 80.2 °F 53.1 °F 29.5 in WSW 12.7 mph 12.7 mph 39 % 0 in
18:40 79.3 °F 52.9 °F 29.5 in SW 13 mph 13 mph 40 % 0 in
18:45 79.2 °F 52.9 °F 29.5 in West 15 mph 15 mph 40 % 0 in
18:50 78.8 °F 53.1 °F 29.5 in WSW 15 mph 15 mph 41 % 0 in
18:55 79 °F 53.2 °F 29.5 in SW 9.2 mph 9.2 mph 41 % 0 in
19:00 78.6 °F 53.6 °F 29.5 in South 10.4 mph 10.4 mph 42 % 0 in
19:05 78.4 °F 54.1 °F 29.5 in South 9.2 mph 9.2 mph 43 % 0 in
19:10 78.1 °F 54.3 °F 29.5 in West 9.8 mph 9.8 mph 44 % 0 in
19:15 76.8 °F 54 °F 29.5 in WSW 20.7 mph 20.7 mph 45 % 0 in
19:20 69.6 °F 52.2 °F 29.5 in SSW 13.8 mph 13.8 mph 54 % 0 in
19:25 66.9 °F 52.2 °F 29.5 in SW 5.8 mph 5.8 mph 59 % 0.08 in
19:30 66.2 °F 52 °F 29.6 in SW 4.6 mph 4.6 mph 60 % 0.08 in
19:35 65.8 °F 52.9 °F 29.6 in SSW 5.8 mph 5.8 mph 63 % 0.08 in
19:40 65.7 °F 53.1 °F 29.6 in WSW 3.5 mph 3.5 mph 64 % 0.08 in
19:45 65.8 °F 53.8 °F 29.6 in West 3.5 mph 3.5 mph 65 % 0.08 in
19:50 66.4 °F 54.7 °F 29.6 in West 2.3 mph 2.3 mph 66 % 0.08 in
19:55 66.6 °F 54.3 °F 29.6 in NW 1.6 mph 1.6 mph 65 % 0.08 in
20:00 66.9 °F 55.6 °F 29.6 in East 3.5 mph 3.5 mph 67 % 0.08 in
20:05 67.1 °F 55.4 °F 29.6 in East 2.4 mph 2.4 mph 66 % 0.08 in
20:10 67.3 °F 55.9 °F 29.6 in ENE 3.6 mph 3.6 mph 67 % 0.08 in
20:15 67.5 °F 56.1 °F 29.6 in South 2.3 mph 2.3 mph 67 % 0.08 in
20:20 67.3 °F 55.6 °F 29.6 in East 3.5 mph 3.5 mph 66 % 0.08 in
20:25 67.3 °F 55 °F 29.6 in NE 2.3 mph   65 % 0 in
20:30 67.3 °F 55 °F 29.6 in NE 1.2 mph   65 % 0 in
20:35 67.3 °F 54.7 °F 29.6 in West 1.2 mph   64 % 0 in
20:40 67.5 °F 54.9 °F 29.6 in Calm     64 % 0 in
20:45 67.5 °F 54 °F 29.6 in WSW 2.3 mph 2.3 mph 62 % 0 in
20:50 67.6 °F 54.7 °F 29.6 in Calm     63 % 0 in
20:55 67.8 °F 54.9 °F 29.6 in SE 1.2 mph   63 % 0 in
21:00 67.8 °F 54.3 °F 29.6 in Calm     62 % 0 in
21:05 67.8 °F 55.6 °F 29.6 in WSW 1.6 mph   65 % 0 in
21:10 67.5 °F 56.1 °F 29.6 in WSW 1.2 mph   67 % 0 in
21:15 67.3 °F 55.9 °F 29.6 in Calm     67 % 0 in
21:20 67.1 °F 55.8 °F 29.6 in WNW 1.2 mph   67 % 0 in
21:25 67.1 °F 55.8 °F 29.6 in Calm     67 % 0 in
21:30 67.1 °F 56.7 °F 29.6 in NE 2 mph 2 mph 69 % 0 in
21:35 66.7 °F 55.8 °F 29.6 in ENE 1.4 mph 1.4 mph 68 % 0 in
21:40 66.7 °F 55.4 °F 29.6 in NE 2.3 mph 2.3 mph 67 % 0 in
21:45 67.1 °F 55.4 °F 29.6 in ENE 4.9 mph 4.9 mph 66 % 0 in
21:50 67.3 °F 55 °F 29.6 in North 4.6 mph 4.6 mph 65 % 0 in
21:55 67.5 °F 54.9 °F 29.6 in NE 5.8 mph 5.8 mph 64 % 0 in
22:00 67.5 °F 55.2 °F 29.6 in NNE 4.6 mph 4.6 mph 65 % 0 in
22:05 67.5 °F 55.2 °F 29.6 in NNE 5.8 mph 5.8 mph 65 % 0 in
22:10 67.5 °F 55.2 °F 29.6 in West 4.6 mph 4.6 mph 65 % 0 in
22:15 66.9 °F 54.9 °F 29.6 in NNE 3.3 mph 3.3 mph 65 % 0 in
22:20 67.1 °F 54.5 °F 29.6 in WSW 3.5 mph 3.5 mph 64 % 0 in
22:25 67.5 °F 54.9 °F 29.6 in East 2.4 mph 2.4 mph 64 % 0 in
22:30 67.8 °F 54.3 °F 29.6 in NNW 1.2 mph 1.4 mph 62 % 0 in
22:35 68.4 °F 54 °F 29.6 in East 2.3 mph 2.3 mph 60 % 0 in
22:40 68 °F 54.5 °F 29.6 in East 3.5 mph 3.5 mph 62 % 0 in
22:45 67.3 °F 55 °F 29.6 in ESE 4.6 mph 4.6 mph 65 % 0 in
22:50 66.9 °F 54.9 °F 29.6 in SSE 3.5 mph 3.5 mph 65 % 0 in
22:55 66.7 °F 55 °F 29.6 in SE 3.5 mph 3.5 mph 66 % 0 in
23:00 66.6 °F 54.3 °F 29.6 in SSW 0.9 mph   65 % 0 in
23:05 66.4 °F 54.7 °F 29.6 in WSW 2.3 mph 2.3 mph 66 % 0 in
23:10 66 °F 54.7 °F 29.6 in SW 0.9 mph   67 % 0 in
23:15 65.7 °F 54.9 °F 29.6 in Calm     68 % 0 in
23:20 65.7 °F 54.9 °F 29.6 in NE 2.3 mph 2.3 mph 68 % 0 in
23:25 66 °F 55.2 °F 29.6 in East 2.3 mph 2.4 mph 68 % 0 in
23:30 65.8 °F 55 °F 29.6 in East 4.3 mph 4.3 mph 68 % 0 in
23:35 65.8 °F 55 °F 29.6 in ESE 5.8 mph 5.8 mph 68 % 0 in
23:40 65.8 °F 54.7 °F 29.6 in ESE 3.5 mph 3.5 mph 67 % 0 in
23:45 65.8 °F 55 °F 29.6 in NNE 3.5 mph 3.5 mph 68 % 0 in
23:50 65.8 °F 55 °F 29.6 in East 4.6 mph 4.6 mph 68 % 0 in
23:55 65.8 °F 55 °F 29.6 in SE 5.8 mph 5.8 mph 68 % 0 in
Meteo Sesrovires
Elogis d' Weather Underground - 3.5 mb

Guio original per  Jim McMurry - jmcmurry@mwt.net Adaptat per a la plantilla per  Wim van der Kuil - Leuven-Template.eu

Trobareu la nostra informacio del temps tambe a:

Weather Underground

AWEKAS